createdAt,value
2022-08-05T00:00:17.536Z,76.70
2022-08-05T00:02:50.807Z,76.70
2022-08-05T00:06:01.821Z,76.50
2022-08-05T00:08:05.110Z,76.80
2022-08-05T00:10:34.022Z,76.60
2022-08-05T00:13:02.244Z,76.20
2022-08-05T00:15:55.697Z,76.80
2022-08-05T00:18:21.589Z,77.30
2022-08-05T00:20:49.969Z,77.50
2022-08-05T00:23:16.693Z,78.20
2022-08-05T00:25:45.978Z,77.90
2022-08-05T00:28:13.547Z,78.00
2022-08-05T00:30:41.258Z,78.20
2022-08-05T00:33:15.721Z,78.60
2022-08-05T00:36:16.503Z,78.70
2022-08-05T00:38:44.815Z,79.20
2022-08-05T00:41:12.031Z,79.40
2022-08-05T00:43:47.192Z,79.90
2022-08-05T00:46:16.259Z,80.00
2022-08-05T00:48:50.768Z,80.60
2022-08-05T00:51:50.610Z,80.90
2022-08-05T00:54:08.387Z,81.20
2022-08-05T00:56:38.291Z,81.90
2022-08-05T00:59:13.702Z,82.00
2022-08-05T01:01:42.585Z,82.60
2022-08-05T01:04:15.901Z,82.50
2022-08-05T01:06:43.704Z,83.40
2022-08-05T01:09:15.129Z,82.50
2022-08-05T01:11:46.140Z,83.00
2022-08-05T01:14:40.744Z,83.40
2022-08-05T01:17:13.599Z,83.90
2022-08-05T01:20:01.615Z,83.50
2022-08-05T01:22:58.577Z,84.00
2022-08-05T01:25:53.388Z,83.70
2022-08-05T01:28:48.346Z,84.00
2022-08-05T01:31:42.680Z,84.70
2022-08-05T01:34:30.880Z,83.80
2022-08-05T01:37:09.541Z,84.10
2022-08-05T01:39:47.819Z,84.30
2022-08-05T01:42:19.246Z,84.60
2022-08-05T01:44:54.369Z,84.10
2022-08-05T01:47:23.588Z,84.10
2022-08-05T01:50:02.007Z,84.40
2022-08-05T01:52:31.544Z,84.60
2022-08-05T01:55:04.677Z,86.30
2022-08-05T01:58:29.201Z,87.30
2022-08-05T02:00:30.660Z,88.40
2022-08-05T02:03:24.325Z,89.20
2022-08-05T02:06:00.878Z,90.10
2022-08-05T02:08:29.749Z,89.80
2022-08-05T02:11:04.445Z,90.40
2022-08-05T02:13:54.607Z,90.70
2022-08-05T02:16:23.135Z,91.30
2022-08-05T02:18:56.115Z,91.50
2022-08-05T02:21:28.268Z,91.80
2022-08-05T02:24:03.080Z,91.90
2022-08-05T02:26:54.741Z,92.10
2022-08-05T02:29:26.274Z,92.80
2022-08-05T02:32:23.962Z,94.30
2022-08-05T02:35:09.666Z,94.60
2022-08-05T02:37:47.840Z,95.50
2022-08-05T02:40:22.702Z,95.80
2022-08-05T02:42:54.026Z,95.90
2022-08-05T02:45:23.875Z,95.90
2022-08-05T02:48:07.357Z,96.30
2022-08-05T02:50:44.395Z,96.40
2022-08-05T02:53:18.689Z,96.60
2022-08-05T02:55:59.623Z,97.20
2022-08-05T02:58:30.140Z,97.90
2022-08-05T03:01:00.712Z,98.50
2022-08-05T03:03:34.273Z,98.70
2022-08-05T03:06:57.245Z,99.10
2022-08-05T03:09:05.073Z,99.70
2022-08-05T03:11:55.420Z,99.80
2022-08-05T03:14:21.341Z,99.80
2022-08-05T03:16:47.993Z,99.90
2022-08-05T03:19:20.276Z,99.90
2022-08-05T03:22:01.432Z,99.90
2022-08-05T03:24:30.423Z,99.90
2022-08-05T03:26:59.388Z,99.90
2022-08-05T03:29:45.535Z,99.90
2022-08-05T03:32:15.239Z,99.90
2022-08-05T03:34:50.978Z,99.90
2022-08-05T03:37:20.391Z,99.90
2022-08-05T03:40:00.898Z,99.90
2022-08-05T03:42:32.834Z,99.90
2022-08-05T03:45:21.661Z,99.90
2022-08-05T03:47:49.870Z,99.90
2022-08-05T03:50:16.681Z,99.90
2022-08-05T03:55:00.349Z,99.90
2022-08-05T03:56:10.270Z,99.90
2022-08-05T03:58:42.740Z,99.90
2022-08-05T04:01:13.273Z,99.90
2022-08-05T04:03:42.371Z,99.90
2022-08-05T04:06:29.636Z,99.90
2022-08-05T04:08:58.574Z,99.90
2022-08-05T04:11:50.483Z,99.90
2022-08-05T04:14:17.860Z,99.90
2022-08-05T04:16:45.210Z,99.90
2022-08-05T04:19:13.214Z,99.50
2022-08-05T04:22:10.080Z,99.60
2022-08-05T04:24:27.640Z,99.60
2022-08-05T04:26:54.437Z,99.90
2022-08-05T04:29:21.147Z,99.90
2022-08-05T04:31:49.836Z,99.90
2022-08-05T04:34:19.667Z,99.90
2022-08-05T04:37:00.769Z,99.90
2022-08-05T04:39:27.875Z,99.90
2022-08-05T04:41:55.335Z,99.90
2022-08-05T04:44:29.059Z,99.90
2022-08-05T04:47:09.766Z,99.90
2022-08-05T04:50:01.042Z,99.90
2022-08-05T04:52:27.623Z,99.90
2022-08-05T04:54:57.169Z,99.90
2022-08-05T04:57:28.925Z,99.90
2022-08-05T04:59:58.664Z,99.90
2022-08-05T05:02:36.167Z,99.90
2022-08-05T05:05:16.878Z,99.90
2022-08-05T05:07:56.141Z,99.90
2022-08-05T05:10:29.633Z,99.90
2022-08-05T05:12:56.689Z,99.90
2022-08-05T05:15:57.341Z,99.90
2022-08-05T05:18:15.116Z,99.90
2022-08-05T05:20:55.257Z,99.90
2022-08-05T05:23:21.915Z,99.90
2022-08-05T05:25:48.764Z,99.90
2022-08-05T05:28:15.535Z,99.90
2022-08-05T05:30:42.482Z,99.90
2022-08-05T05:33:16.170Z,99.90
2022-08-05T05:35:45.512Z,99.90
2022-08-05T05:38:14.247Z,99.90
2022-08-05T05:40:49.715Z,99.90
2022-08-05T05:43:27.693Z,99.90
2022-08-05T05:46:12.243Z,99.90
2022-08-05T05:48:44.010Z,99.90
2022-08-05T05:51:15.661Z,99.90
2022-08-05T05:53:54.150Z,99.90
2022-08-05T05:56:33.279Z,99.90
2022-08-05T05:59:08.070Z,99.90
2022-08-05T06:01:37.877Z,99.90
2022-08-05T06:04:07.454Z,99.90
2022-08-05T06:06:35.133Z,99.90
2022-08-05T06:09:04.076Z,99.90
2022-08-05T06:11:34.252Z,99.90
2022-08-05T06:14:01.269Z,99.90
2022-08-05T06:16:32.826Z,99.90
2022-08-05T06:19:05.718Z,99.90
2022-08-05T06:22:04.620Z,99.90
2022-08-05T06:24:59.118Z,99.90
2022-08-05T06:28:11.172Z,99.90
2022-08-05T06:31:35.212Z,99.90
2022-08-05T06:37:56.163Z,99.90
2022-08-05T06:40:27.933Z,99.90
2022-08-05T06:42:59.005Z,99.90
2022-08-05T06:45:44.908Z,99.90
2022-08-05T06:48:47.345Z,99.90
2022-08-05T06:51:00.045Z,99.90
2022-08-05T06:53:28.663Z,99.90
2022-08-05T06:55:59.062Z,99.90
2022-08-05T06:58:35.378Z,99.90
2022-08-05T07:01:05.764Z,98.70
2022-08-05T07:03:33.458Z,99.40
2022-08-05T07:06:06.306Z,99.60
2022-08-05T07:08:43.126Z,99.50
2022-08-05T07:11:15.763Z,99.80
2022-08-05T07:14:01.569Z,99.80
2022-08-05T07:17:59.875Z,98.60
2022-08-05T07:22:27.895Z,98.20
2022-08-05T07:24:58.051Z,98.50
2022-08-05T07:27:27.539Z,98.20
2022-08-05T07:30:30.258Z,98.10
2022-08-05T07:32:58.510Z,97.90
2022-08-05T07:35:55.849Z,97.80
2022-08-05T07:38:31.971Z,97.70
2022-08-05T07:40:58.938Z,97.90
2022-08-05T07:43:29.562Z,98.50
2022-08-05T07:45:57.700Z,98.00
2022-08-05T07:49:00.458Z,95.60
2022-08-05T07:51:36.356Z,94.70
2022-08-05T07:53:59.098Z,96.00
2022-08-05T07:57:00.667Z,95.30
2022-08-05T07:59:15.488Z,95.50
2022-08-05T08:01:52.235Z,95.60
2022-08-05T08:04:37.531Z,94.70
2022-08-05T08:07:07.325Z,95.50
2022-08-05T08:09:34.813Z,96.00
2022-08-05T08:12:09.033Z,96.40
2022-08-05T08:14:42.551Z,97.20
2022-08-05T08:17:16.113Z,97.40
2022-08-05T08:20:43.690Z,96.70
2022-08-05T08:22:35.624Z,95.00
2022-08-05T08:25:03.255Z,94.10
2022-08-05T08:27:35.796Z,92.60
2022-08-05T08:30:29.992Z,91.70
2022-08-05T08:32:58.284Z,93.10
2022-08-05T08:35:34.755Z,93.00
2022-08-05T08:38:01.995Z,93.00
2022-08-05T08:40:32.092Z,91.60
2022-08-05T08:44:55.753Z,92.10
2022-08-05T08:45:49.433Z,91.10
2022-08-05T08:48:36.146Z,93.00
2022-08-05T08:51:22.493Z,94.30
2022-08-05T08:53:54.094Z,93.00
2022-08-05T08:56:22.176Z,90.40
2022-08-05T08:58:49.633Z,88.00
2022-08-05T09:01:19.096Z,84.30
2022-08-05T09:03:55.071Z,85.50
2022-08-05T09:06:29.226Z,86.50
2022-08-05T09:09:00.546Z,86.70
2022-08-05T09:11:51.249Z,84.70
2022-08-05T09:14:58.425Z,86.00
2022-08-05T09:17:08.141Z,85.50
2022-08-05T09:20:01.615Z,86.70
2022-08-05T09:22:31.007Z,88.30
2022-08-05T09:25:14.041Z,89.00
2022-08-05T09:28:05.466Z,88.30
2022-08-05T09:30:34.409Z,86.00
2022-08-05T09:33:04.924Z,87.70
2022-08-05T09:35:31.885Z,89.20
2022-08-05T09:38:12.391Z,88.90
2022-08-05T09:40:52.448Z,87.90
2022-08-05T09:43:40.977Z,90.50
2022-08-05T09:46:28.338Z,89.00
2022-08-05T09:49:08.178Z,88.70
2022-08-05T09:51:49.469Z,83.80
2022-08-05T09:54:21.343Z,85.30
2022-08-05T09:56:57.665Z,85.00
2022-08-05T09:59:28.519Z,82.60
2022-08-05T10:01:58.363Z,81.50
2022-08-05T10:04:36.286Z,85.10
2022-08-05T10:07:20.175Z,82.70
2022-08-05T10:10:14.639Z,80.10
2022-08-05T10:12:49.410Z,80.60
2022-08-05T10:15:39.578Z,80.70
2022-08-05T10:18:25.546Z,72.30
2022-08-05T10:20:55.728Z,72.90
2022-08-05T10:23:58.827Z,73.00
2022-08-05T10:26:24.259Z,74.40
2022-08-05T10:28:58.551Z,75.40
2022-08-05T10:32:52.207Z,72.10
2022-08-05T10:34:11.952Z,71.30
2022-08-05T10:36:40.598Z,69.60
2022-08-05T10:39:25.261Z,68.30
2022-08-05T10:42:18.426Z,69.20
2022-08-05T10:44:52.379Z,71.00
2022-08-05T10:47:25.873Z,68.40
2022-08-05T10:50:36.464Z,68.60
2022-08-05T10:53:06.152Z,69.70
2022-08-05T10:56:03.276Z,66.30
2022-08-05T10:58:21.142Z,66.70
2022-08-05T11:00:48.497Z,66.60
2022-08-05T11:03:23.148Z,67.10
2022-08-05T11:06:16.032Z,66.70
2022-08-05T11:09:24.447Z,64.90
2022-08-05T11:12:06.139Z,66.20
2022-08-05T11:15:01.463Z,66.20
2022-08-05T11:17:59.859Z,65.60
2022-08-05T11:20:32.936Z,65.50
2022-08-05T11:23:05.755Z,67.40
2022-08-05T11:26:04.516Z,69.90
2022-08-05T11:28:30.736Z,71.90
2022-08-05T11:31:06.413Z,75.00
2022-08-05T11:33:46.322Z,78.40
2022-08-05T11:36:33.990Z,79.10
2022-08-05T11:39:01.577Z,81.30
2022-08-05T11:41:58.304Z,79.20
2022-08-05T11:44:40.541Z,79.50
2022-08-05T11:47:11.098Z,81.90
2022-08-05T11:49:43.318Z,81.90
2022-08-05T11:52:29.485Z,81.70
2022-08-05T11:54:58.543Z,82.40
2022-08-05T11:58:08.222Z,83.20
2022-08-05T12:00:31.545Z,81.70
2022-08-05T12:03:28.448Z,82.30
2022-08-05T12:06:05.824Z,81.40
2022-08-05T12:08:56.791Z,81.70
2022-08-05T12:11:40.139Z,81.10
2022-08-05T12:14:11.101Z,81.30
2022-08-05T12:16:45.546Z,82.90
2022-08-05T12:20:25.769Z,82.20
2022-08-05T12:22:06.025Z,82.80
2022-08-05T12:24:52.682Z,84.30
2022-08-05T12:27:52.873Z,85.50
2022-08-05T12:30:32.367Z,85.80
2022-08-05T12:33:07.348Z,87.00
2022-08-05T12:35:46.290Z,88.40
2022-08-05T12:38:15.179Z,88.60
2022-08-05T12:40:44.099Z,88.80
2022-08-05T12:43:11.542Z,87.90
2022-08-05T12:45:55.402Z,87.40
2022-08-05T12:48:27.532Z,86.20
2022-08-05T12:51:22.092Z,86.70
2022-08-05T12:54:03.660Z,87.50
2022-08-05T12:56:35.395Z,86.20
2022-08-05T12:59:46.477Z,85.20
2022-08-05T13:02:11.757Z,85.20
2022-08-05T13:04:54.304Z,85.40
2022-08-05T13:07:55.738Z,86.10
2022-08-05T13:10:12.349Z,86.70
2022-08-05T13:12:50.826Z,84.30
2022-08-05T13:15:41.129Z,85.10
2022-08-05T13:18:08.547Z,85.00
2022-08-05T13:20:35.873Z,85.90
2022-08-05T13:23:07.577Z,84.10
2022-08-05T13:25:58.224Z,83.30
2022-08-05T13:28:22.023Z,83.20
2022-08-05T13:30:49.007Z,84.90
2022-08-05T13:34:22.397Z,83.80
2022-08-05T13:36:06.854Z,84.00
2022-08-05T13:38:42.464Z,85.00
2022-08-05T13:41:11.359Z,82.10
2022-08-05T13:43:45.760Z,82.70
2022-08-05T13:46:37.896Z,83.40
2022-08-05T13:49:12.656Z,83.40
2022-08-05T13:51:46.189Z,84.10
2022-08-05T13:54:15.299Z,82.90
2022-08-05T13:56:45.075Z,83.50
2022-08-05T13:59:20.051Z,84.60
2022-08-05T14:01:59.175Z,85.10
2022-08-05T14:04:57.074Z,85.80
2022-08-05T14:08:01.130Z,85.10
2022-08-05T14:10:28.080Z,78.10
2022-08-05T14:12:56.062Z,71.40
2022-08-05T14:16:08.567Z,70.80
2022-08-05T14:18:15.106Z,71.40
2022-08-05T14:20:47.239Z,72.00
2022-08-05T14:23:23.399Z,71.40
2022-08-05T14:25:54.119Z,70.10
2022-08-05T14:28:27.046Z,70.80
2022-08-05T14:30:57.516Z,70.10
2022-08-05T14:33:24.383Z,69.80
2022-08-05T14:35:53.953Z,69.20
2022-08-05T14:38:32.457Z,70.80
2022-08-05T14:41:05.957Z,70.70
2022-08-05T14:43:59.478Z,65.50
2022-08-05T14:46:21.988Z,65.10
2022-08-05T14:48:49.856Z,64.30
2022-08-05T14:51:17.661Z,63.80
2022-08-05T14:53:45.496Z,65.60
2022-08-05T14:56:32.106Z,66.30
2022-08-05T14:58:58.842Z,67.10
2022-08-05T15:01:48.702Z,68.30
2022-08-05T15:04:12.365Z,69.60
2022-08-05T15:06:40.424Z,70.20
2022-08-05T15:09:07.276Z,67.90
2022-08-05T15:11:51.323Z,66.30
2022-08-05T15:14:35.083Z,64.60
2022-08-05T15:17:09.962Z,66.30
2022-08-05T15:19:55.818Z,63.20
2022-08-05T15:22:27.102Z,60.00
2022-08-05T15:24:55.447Z,56.10
2022-08-05T15:27:22.342Z,55.70
2022-08-05T15:29:52.967Z,53.10
2022-08-05T15:32:27.513Z,52.20
2022-08-05T15:34:56.727Z,49.00
2022-08-05T15:38:09.268Z,51.70
2022-08-05T15:40:58.277Z,50.80
2022-08-05T15:43:09.169Z,51.80
2022-08-05T15:45:45.626Z,53.80
2022-08-05T15:48:13.989Z,46.50
2022-08-05T15:50:43.561Z,46.00
2022-08-05T15:53:12.763Z,47.40
2022-08-05T15:56:01.235Z,45.10
2022-08-05T15:58:29.837Z,46.30
2022-08-05T16:01:15.780Z,46.90
2022-08-05T16:03:48.439Z,46.10
2022-08-05T16:06:19.967Z,47.20
2022-08-05T16:08:48.337Z,43.30
2022-08-05T16:11:18.485Z,41.40
2022-08-05T16:13:48.352Z,41.80
2022-08-05T16:16:15.871Z,41.90
2022-08-05T16:18:52.829Z,43.50
2022-08-05T16:21:20.835Z,42.00
2022-08-05T16:24:12.617Z,43.30
2022-08-05T16:27:00.739Z,42.10
2022-08-05T16:29:28.587Z,40.80
2022-08-05T16:31:58.428Z,42.20
2022-08-05T16:34:26.415Z,40.70
2022-08-05T16:36:53.522Z,43.80
2022-08-05T16:39:21.008Z,42.20
2022-08-05T16:42:14.867Z,40.40
2022-08-05T16:44:34.486Z,43.00
2022-08-05T16:47:04.471Z,42.10
2022-08-05T16:49:31.244Z,42.60
2022-08-05T16:51:57.925Z,43.20
2022-08-05T16:54:31.960Z,44.40
2022-08-05T16:57:00.214Z,47.10
2022-08-05T16:59:30.814Z,45.50
2022-08-05T17:01:57.762Z,46.80
2022-08-05T17:04:28.139Z,45.60
2022-08-05T17:07:03.501Z,47.80
2022-08-05T17:09:57.527Z,49.00
2022-08-05T17:12:50.638Z,47.50
2022-08-05T17:15:19.198Z,47.50
2022-08-05T17:17:54.745Z,48.60
2022-08-05T17:20:22.075Z,46.80
2022-08-05T17:22:54.324Z,46.80
2022-08-05T17:25:33.946Z,46.30
2022-08-05T17:28:06.421Z,46.80
2022-08-05T17:30:34.513Z,49.00
2022-08-05T17:33:17.656Z,49.10
2022-08-05T17:36:08.755Z,48.20
2022-08-05T17:38:33.636Z,48.90
2022-08-05T17:41:01.642Z,49.20
2022-08-05T17:43:50.556Z,47.10
2022-08-05T17:46:15.480Z,47.60
2022-08-05T17:48:45.045Z,49.20
2022-08-05T17:51:14.843Z,49.20
2022-08-05T17:53:50.889Z,48.60
2022-08-05T17:56:21.596Z,51.00
2022-08-05T17:58:49.591Z,51.70
2022-08-05T18:01:18.094Z,51.30
2022-08-05T18:03:59.683Z,50.60
2022-08-05T18:06:31.509Z,52.60
2022-08-05T18:08:59.567Z,54.00
2022-08-05T18:11:33.516Z,52.40
2022-08-05T18:14:07.169Z,53.60
2022-08-05T18:16:35.657Z,54.00
2022-08-05T18:19:18.300Z,55.30
2022-08-05T18:22:08.864Z,53.50
2022-08-05T18:24:36.620Z,52.90
2022-08-05T18:27:03.693Z,52.30
2022-08-05T18:29:40.789Z,53.10
2022-08-05T18:32:13.057Z,52.80
2022-08-05T18:34:42.817Z,53.70
2022-08-05T18:37:12.292Z,54.40
2022-08-05T18:40:31.051Z,54.80
2022-08-05T18:42:27.224Z,55.70
2022-08-05T18:44:56.178Z,57.20
2022-08-05T18:47:26.688Z,60.40
2022-08-05T18:50:12.825Z,59.10
2022-08-05T18:52:41.747Z,59.30
2022-08-05T18:55:18.656Z,60.00
2022-08-05T18:57:52.784Z,58.70
2022-08-05T19:00:28.839Z,57.20
2022-08-05T19:02:56.430Z,57.00
2022-08-05T19:06:12.266Z,58.30
2022-08-05T19:08:12.225Z,60.40
2022-08-05T19:10:40.731Z,60.60
2022-08-05T19:13:07.810Z,61.10
2022-08-05T19:16:00.165Z,61.80
2022-08-05T19:18:26.070Z,62.70
2022-08-05T19:20:56.134Z,63.20
2022-08-05T19:24:07.342Z,64.20
2022-08-05T19:26:12.013Z,65.50
2022-08-05T19:28:44.060Z,66.10
2022-08-05T19:31:18.042Z,66.50
2022-08-05T19:33:48.301Z,68.50
2022-08-05T19:36:23.475Z,68.70
2022-08-05T19:38:50.109Z,70.00
2022-08-05T19:41:16.827Z,70.00
2022-08-05T19:44:04.093Z,70.70
2022-08-05T19:46:39.325Z,70.70
2022-08-05T19:49:07.203Z,70.70
2022-08-05T19:52:09.305Z,71.40
2022-08-05T19:54:31.571Z,72.00
2022-08-05T19:56:59.887Z,72.70
2022-08-05T20:00:01.761Z,72.00
2022-08-05T20:02:17.690Z,71.50
2022-08-05T20:04:46.184Z,70.70
2022-08-05T20:07:14.244Z,68.10
2022-08-05T20:09:53.542Z,65.30
2022-08-05T20:12:20.944Z,63.70
2022-08-05T20:14:49.426Z,62.90
2022-08-05T20:17:23.711Z,63.40
2022-08-05T20:19:56.559Z,61.50
2022-08-05T20:22:25.049Z,63.10
2022-08-05T20:24:55.562Z,62.10
2022-08-05T20:27:26.621Z,62.10
2022-08-05T20:29:58.516Z,60.80
2022-08-05T20:32:27.397Z,61.00
2022-08-05T20:34:54.896Z,61.60
2022-08-05T20:38:04.937Z,61.60
2022-08-05T20:40:09.229Z,59.50
2022-08-05T20:42:36.034Z,58.90
2022-08-05T20:45:04.175Z,57.60
2022-08-05T20:47:32.737Z,57.90
2022-08-05T20:50:01.838Z,56.20
2022-08-05T20:52:29.263Z,55.60
2022-08-05T20:55:16.102Z,54.30
2022-08-05T20:57:44.921Z,55.10
2022-08-05T21:00:40.483Z,55.60
2022-08-05T21:03:07.019Z,56.60
2022-08-05T21:05:48.184Z,57.50
2022-08-05T21:08:33.003Z,58.20
2022-08-05T21:11:15.259Z,60.30
2022-08-05T21:13:59.851Z,62.20
2022-08-05T21:16:29.921Z,62.70
2022-08-05T21:19:01.223Z,63.40
2022-08-05T21:21:39.487Z,63.40
2022-08-05T21:24:12.963Z,63.70
2022-08-05T21:26:40.203Z,64.40
2022-08-05T21:29:10.086Z,64.40
2022-08-05T21:31:42.063Z,64.90
2022-08-05T21:34:10.608Z,64.50
2022-08-05T21:36:38.379Z,65.90
2022-08-05T21:39:05.307Z,64.50
2022-08-05T21:41:35.454Z,64.50
2022-08-05T21:44:04.278Z,65.60
2022-08-05T21:46:34.237Z,64.90
2022-08-05T21:49:02.718Z,64.50
2022-08-05T21:52:22.459Z,65.10
2022-08-05T21:54:27.805Z,65.90
2022-08-05T21:57:04.859Z,65.80
2022-08-05T22:00:01.557Z,64.50
2022-08-05T22:02:28.234Z,65.10
2022-08-05T22:04:58.081Z,66.10
2022-08-05T22:07:40.067Z,66.40
2022-08-05T22:10:12.561Z,67.00
2022-08-05T22:12:40.208Z,66.80
2022-08-05T22:15:16.600Z,66.80
2022-08-05T22:17:48.656Z,68.30
2022-08-05T22:20:26.475Z,67.50
2022-08-05T22:23:17.086Z,67.40
2022-08-05T22:26:10.528Z,68.00
2022-08-05T22:28:38.717Z,67.50
2022-08-05T22:31:05.972Z,68.00
2022-08-05T22:33:55.479Z,68.80
2022-08-05T22:36:20.366Z,68.70
2022-08-05T22:38:51.293Z,70.60
2022-08-05T22:42:05.684Z,70.80
2022-08-05T22:44:07.818Z,70.90
2022-08-05T22:46:39.714Z,71.40
2022-08-05T22:49:23.347Z,70.90
2022-08-05T22:52:05.772Z,71.30
2022-08-05T22:54:35.319Z,71.20
2022-08-05T22:57:02.880Z,71.70
2022-08-05T22:59:43.941Z,71.60
2022-08-05T23:02:16.866Z,72.80
2022-08-05T23:04:51.298Z,74.80
2022-08-05T23:07:18.597Z,75.30
2022-08-05T23:09:58.004Z,75.20
2022-08-05T23:12:32.374Z,76.20
2022-08-05T23:15:08.436Z,76.30
2022-08-05T23:17:37.912Z,76.50
2022-08-05T23:20:23.433Z,77.50
2022-08-05T23:22:56.044Z,77.50
2022-08-05T23:25:51.328Z,76.70
2022-08-05T23:28:10.742Z,76.20
2022-08-05T23:30:40.301Z,75.80
2022-08-05T23:33:21.837Z,75.50
2022-08-05T23:35:52.261Z,76.80
2022-08-05T23:38:23.548Z,76.80
2022-08-05T23:40:52.812Z,77.90
2022-08-05T23:43:25.730Z,78.40
2022-08-05T23:46:20.161Z,78.60
2022-08-05T23:49:00.866Z,78.80
2022-08-05T23:51:53.335Z,78.70
2022-08-05T23:54:26.639Z,79.10
2022-08-05T23:57:03.863Z,79.30
